Time;durP1;ratioP1;P1;durP2;ratioP2;P2;SDS_P1;SDS_P2;PMS_P1;PMS_P2;Temp;Humidity;BMP_temperature;BMP_pressure;BME280_temperature;BME280_humidity;BME280_pressure;Samples;Min_cycle;Max_cycle;Signal;HPM_P1;HPM_P2
2022/11/29 00:01:25;;;;;;;16.20;7.20;;;;;;;0.50;100.00;100802.11;106616;1305;22347;-67
2022/11/29 00:03:53;;;;;;;10.80;7.10;;;;;;;0.50;100.00;100800.81;106473;1299;139066;-66
2022/11/29 00:06:21;;;;;;;15.00;6.90;;;;;;;0.51;100.00;100802.77;106586;1305;22134;-66
2022/11/29 00:08:48;;;;;;;10.90;6.40;;;;;;;0.51;100.00;100804.77;106509;1281;137912;-66
2022/11/29 00:14:02;;;;;;;12.80;6.00;;;;;;;0.50;100.00;100802.34;106608;1304;138744;-67
2022/11/29 00:16:28;;;;;;;10.10;6.20;;;;;;;0.49;100.00;100803.34;106612;1292;22926;-66
2022/11/29 00:18:55;;;;;;;12.70;7.30;;;;;;;0.51;100.00;100800.44;106616;1297;23131;-67
2022/11/29 00:21:22;;;;;;;9.80;6.80;;;;;;;0.50;100.00;100807.45;106404;1286;138096;-68
2022/11/29 00:23:48;;;;;;;10.50;7.00;;;;;;;0.49;100.00;100806.30;106556;1289;22128;-66
2022/11/29 00:26:15;;;;;;;;;;;;;;;0.49;100.00;100804.86;104473;1305;138109;-66
2022/11/29 00:28:42;;;;;;;14.50;8.00;;;;;;;0.49;100.00;100801.30;102364;1289;25537;-67
2022/11/29 00:31:20;;;;;;;11.70;6.80;;;;;;;0.48;100.00;100797.31;102255;1298;23858;-67
2022/11/29 00:33:47;;;;;;;13.10;8.10;;;;;;;0.46;100.00;100796.29;102192;1288;138031;-66
2022/11/29 00:36:14;;;;;;;11.60;6.60;;;;;;;0.45;100.00;100797.27;102214;1298;22521;-66
2022/11/29 00:38:40;;;;;;;;;;;;;;;0.44;100.00;100799.91;102186;1296;143300;-67
2022/11/29 00:41:08;;;;;;;13.20;6.30;;;;;;;0.44;100.00;100799.77;102308;1281;22484;-66
2022/11/29 00:43:34;;;;;;;8.50;6.10;;;;;;;0.42;100.00;100797.64;102169;1298;138970;-65
2022/11/29 00:46:01;;;;;;;13.20;7.90;;;;;;;0.40;100.00;100797.66;102299;1312;25177;-66
2022/11/29 00:48:28;;;;;;;12.00;7.20;;;;;;;0.38;100.00;100801.48;102260;1298;22500;-66
2022/11/29 00:50:55;;;;;;;;;;;;;;;0.35;100.00;100806.40;102132;1290;139641;-67
2022/11/29 00:53:22;;;;;;;12.60;7.00;;;;;;;0.32;100.00;100801.49;102260;1298;22495;-68
2022/11/29 00:55:49;;;;;;;15.40;7.80;;;;;;;0.31;100.00;100799.34;102268;1288;138113;-65
2022/11/29 00:58:17;;;;;;;16.50;6.60;;;;;;;0.32;100.00;100806.12;102210;1298;25097;-67
2022/11/29 01:00:44;;;;;;;10.40;6.50;;;;;;;0.31;100.00;100805.14;106420;1311;22204;-68
2022/11/29 01:03:10;;;;;;;;;;;;;;;0.30;100.00;100802.95;106569;1296;137832;-68
2022/11/29 01:05:37;;;;;;;8.00;5.70;;;;;;;0.29;100.00;100797.95;106683;1298;23205;-68
2022/11/29 01:08:04;;;;;;;8.50;5.60;;;;;;;0.27;100.00;100797.97;106627;1306;138479;-69
2022/11/29 01:10:31;;;;;;;8.60;5.60;;;;;;;0.25;100.00;100794.91;106593;1306;23020;-67
2022/11/29 01:12:58;;;;;;;12.60;6.40;;;;;;;0.26;100.00;100800.52;105207;1297;22606;-67
2022/11/29 01:15:26;;;;;;;12.10;6.80;;;;;;;0.27;100.00;100802.27;102321;1288;138784;-66
2022/11/29 01:17:53;;;;;;;11.20;6.90;;;;;;;0.27;100.00;100802.22;102337;1298;23868;-66
2022/11/29 01:20:20;;;;;;;;;;;;;;;0.27;100.00;100795.48;102300;1288;138159;-66
2022/11/29 01:22:46;;;;;;;10.50;6.00;;;;;;;0.25;100.00;100790.98;102378;1304;25398;-67
2022/11/29 01:25:13;;;;;;;10.90;6.30;;;;;;;0.24;100.00;100787.70;102361;1305;23766;-66
2022/11/29 01:27:40;;;;;;;;;;;;;;;0.23;100.00;100792.75;102213;1297;138464;-67
2022/11/29 01:30:08;;;;;;;9.40;6.40;;;;;;;0.23;100.00;100796.60;102172;1298;24647;-66
2022/11/29 01:32:35;;;;;;;16.00;5.90;;;;;;;0.21;100.00;100796.39;106497;1305;137869;-67
2022/11/29 01:35:03;;;;;;;7.50;5.20;;;;;;;0.19;100.00;100797.11;106613;1306;22228;-67
2022/11/29 01:37:29;;;;;;;10.30;5.80;;;;;;;0.20;100.00;100798.72;106637;1305;22227;-68
2022/11/29 01:39:56;;;;;;;8.80;6.50;;;;;;;0.20;100.00;100798.32;106496;1298;137784;-68
2022/11/29 01:42:23;;;;;;;18.30;5.60;;;;;;;0.19;100.00;100793.09;106624;1290;22128;-67
2022/11/29 01:45:19;;;;;;;;;;;;;;;0.21;100.00;100795.74;106551;1305;138351;-67
2022/11/29 01:47:46;;;;;;;10.10;5.60;;;;;;;0.21;100.00;100796.09;106486;1297;22154;-67
2022/11/29 01:50:13;;;;;;;;;;;;;;;0.21;100.00;100795.12;106516;1305;138499;-67
2022/11/29 01:52:40;;;;;;;10.90;6.30;;;;;;;0.22;100.00;100791.34;106607;1305;22192;-67
2022/11/29 01:55:08;;;;;;;8.90;5.70;;;;;;;0.22;100.00;100791.47;106510;1305;22110;-61
2022/11/29 01:57:36;;;;;;;11.50;7.10;;;;;;;0.21;100.00;100790.73;106479;1305;138334;-67
2022/11/29 02:00:10;;;;;;;11.60;7.10;;;;;;;0.20;100.00;100788.85;106395;1305;22166;-67
2022/11/29 02:02:58;;;;;;;12.70;7.00;;;;;;;0.19;100.00;100789.61;106435;1305;137952;-67
2022/11/29 02:05:24;;;;;;;14.80;7.50;;;;;;;0.18;100.00;100787.48;106543;1306;22123;-67
2022/11/29 02:07:52;;;;;;;12.20;6.70;;;;;;;0.17;100.00;100776.63;106608;1305;138017;-67
2022/11/29 02:10:23;;;;;;;14.30;7.60;;;;;;;0.17;100.00;100773.61;106550;1306;22083;-67
2022/11/29 02:13:11;;;;;;;14.90;8.20;;;;;;;0.17;100.00;100773.41;106507;1301;22175;-67
2022/11/29 02:15:47;;;;;;;;;;;;;;;0.17;100.00;100772.91;106409;1305;138418;-67
2022/11/29 02:18:26;;;;;;;13.00;7.60;;;;;;;0.18;100.00;100777.95;106543;1284;22356;-67
2022/11/29 02:21:07;;;;;;;12.30;7.20;;;;;;;0.18;100.00;100782.59;106420;1305;138714;-67
2022/11/29 02:24:06;;;;;;;25.50;8.60;;;;;;;0.17;100.00;100784.50;106469;1300;22202;-67
2022/11/29 02:26:55;;;;;;;13.40;7.70;;;;;;;0.15;100.00;100789.91;103888;1308;138439;-67
2022/11/29 02:29:43;;;;;;;23.70;9.00;;;;;;;0.10;100.00;100792.58;102399;1298;24057;-66
2022/11/29 02:32:47;;;;;;;11.10;6.70;;;;;;;0.07;100.00;100796.98;102280;1294;139642;-67
2022/11/29 02:35:33;;;;;;;14.10;7.50;;;;;;;0.05;100.00;100796.33;102292;1288;23904;-67
2022/11/29 02:38:37;;;;;;;17.20;8.00;;;;;;;0.04;100.00;100794.45;102160;1298;139989;-67
2022/11/29 02:41:41;;;;;;;13.30;7.60;;;;;;;0.04;100.00;100794.85;102212;1297;25534;-67
2022/11/29 02:44:27;;;;;;;17.60;8.30;;;;;;;0.04;100.00;100801.05;102142;1288;138350;-67
2022/11/29 02:47:03;;;;;;;17.40;7.90;;;;;;;0.04;100.00;100803.21;102113;1288;22512;-67
2022/11/29 02:49:49;;;;;;;18.90;7.10;;;;;;;0.03;100.00;100801.73;102118;1291;24824;-67
2022/11/29 02:52:19;;;;;;;17.00;6.60;;;;;;;-0.00;100.00;100801.29;102358;1284;22529;-66
2022/11/29 02:55:14;;;;;;;11.60;6.50;;;;;;;-0.03;100.00;100806.64;106552;1305;22135;-68
2022/11/29 02:58:18;;;;;;;12.50;6.40;;;;;;;-0.07;100.00;100805.02;106424;1305;139955;-67
2022/11/29 03:01:16;;;;;;;11.90;6.10;;;;;;;-0.09;100.00;100798.27;106437;1296;22155;-68
2022/11/29 03:03:58;;;;;;;9.70;5.40;;;;;;;-0.10;100.00;100798.38;105865;1311;139253;-68
2022/11/29 03:06:37;;;;;;;12.30;6.50;;;;;;;-0.10;100.00;100797.31;105886;1311;22211;-68
2022/11/29 03:09:28;;;;;;;13.00;6.00;;;;;;;-0.12;100.00;100791.27;105961;1311;139109;-67
2022/11/29 03:12:13;;;;;;;8.30;5.30;;;;;;;-0.10;100.00;100796.07;103848;1314;25410;-67
2022/11/29 03:14:53;;;;;;;11.60;6.00;;;;;;;-0.12;100.00;100794.25;101487;1297;139820;-67
2022/11/29 03:17:29;;;;;;;11.10;6.30;;;;;;;-0.14;100.00;100788.95;101322;1307;24356;-66
2022/11/29 03:20:19;;;;;;;10.00;5.10;;;;;;;-0.13;100.00;100789.02;101427;1303;139308;-66
2022/11/29 03:23:07;;;;;;;9.40;5.60;;;;;;;-0.15;100.00;100792.64;101533;1302;24329;-66
2022/11/29 03:25:38;;;;;;;10.30;5.80;;;;;;;-0.16;100.00;100802.58;101637;1290;26782;-66
2022/11/29 03:28:26;;;;;;;10.40;5.40;;;;;;;-0.18;100.00;100807.45;101285;1313;138401;-66
2022/11/29 03:30:56;;;;;;;9.20;5.00;;;;;;;-0.20;100.00;100810.17;101612;1296;25413;-65
2022/11/29 03:33:56;;;;;;;10.10;4.80;;;;;;;-0.22;100.00;100818.77;101473;1297;138564;-66
2022/11/29 03:36:25;;;;;;;7.80;4.90;;;;;;;-0.22;100.00;100821.67;101513;1289;22507;-66
2022/11/29 03:38:54;;;;;;;8.60;4.80;;;;;;;-0.22;100.00;100824.52;101574;1304;138999;-66
2022/11/29 03:41:26;;;;;;;7.50;4.30;;;;;;;-0.24;100.00;100821.09;101875;1289;24706;-67
2022/11/29 03:44:08;;;;;;;8.80;4.60;;;;;;;-0.24;100.00;100814.63;102097;1291;138355;-66
2022/11/29 03:46:36;;;;;;;6.90;4.50;;;;;;;-0.21;100.00;100818.61;106585;1305;22132;-66
2022/11/29 03:49:08;;;;;;;9.90;5.20;;;;;;;-0.19;100.00;100825.56;106529;1306;22144;-67
2022/11/29 03:51:51;;;;;;;9.80;5.60;;;;;;;-0.18;100.00;100827.64;106432;1300;139984;-67
2022/11/29 03:54:23;;;;;;;10.00;5.40;;;;;;;-0.20;100.00;100829.23;106543;1288;22194;-67
2022/11/29 03:56:50;;;;;;;9.70;4.90;;;;;;;-0.20;100.00;100832.90;103492;1289;139313;-65
2022/11/29 03:59:32;;;;;;;9.10;5.00;;;;;;;-0.20;100.00;100838.36;102308;1288;22494;-66
2022/11/29 04:02:21;;;;;;;9.50;5.30;;;;;;;-0.21;100.00;100839.50;102298;1305;138804;-65
2022/11/29 04:05:10;;;;;;;10.90;5.20;;;;;;;-0.25;100.00;100839.60;102335;1288;22479;-67
2022/11/29 04:08:15;;;;;;;10.20;5.80;;;;;;;-0.25;100.00;100840.60;102351;1290;23791;-66
2022/11/29 04:11:11;;;;;;;13.90;5.30;;;;;;;-0.26;100.00;100844.00;102294;1288;24464;-65
2022/11/29 04:14:16;;;;;;;10.10;5.70;;;;;;;-0.28;100.00;100849.91;102304;1298;22518;-66
2022/11/29 04:17:03;;;;;;;9.70;5.70;;;;;;;-0.31;100.00;100845.93;106414;1304;22179;-67
2022/11/29 04:20:08;;;;;;;12.00;5.50;;;;;;;-0.33;100.00;100844.39;105930;1311;22355;-67
2022/11/29 04:23:05;;;;;;;12.10;6.60;;;;;;;-0.37;100.00;100841.85;105937;1312;22304;-67
2022/11/29 04:25:59;;;;;;;11.50;7.20;;;;;;;-0.40;100.00;100836.46;105860;1311;22375;-68
2022/11/29 04:28:49;;;;;;;8.10;5.70;;;;;;;-0.41;100.00;100838.50;105901;1313;23237;-67
2022/11/29 04:31:21;;;;;;;6.20;4.30;;;;;;;-0.39;100.00;100839.62;105885;1311;22464;-67
2022/11/29 04:33:57;;;;;;;9.60;5.60;;;;;;;-0.40;100.00;100842.21;105752;1314;138106;-67
2022/11/29 04:36:39;;;;;;;8.50;5.60;;;;;;;-0.40;100.00;100834.86;105846;1313;22520;-67
2022/11/29 04:39:16;;;;;;;7.20;4.30;;;;;;;-0.39;100.00;100837.21;105800;1313;138053;-67
2022/11/29 04:42:01;;;;;;;7.30;4.80;;;;;;;-0.36;100.00;100846.80;105577;1295;22961;-67
2022/11/29 04:44:42;;;;;;;6.70;4.80;;;;;;;-0.35;100.00;100850.77;105756;1314;138175;-67
2022/11/29 04:47:28;;;;;;;19.80;15.30;;;;;;;-0.34;100.00;100851.75;105688;1309;22171;-67
2022/11/29 04:50:30;;;;;;;9.40;6.90;;;;;;;-0.33;100.00;100849.38;105905;1314;22748;-67
2022/11/29 04:53:02;;;;;;;8.60;4.80;;;;;;;-0.31;100.00;100853.68;105472;1303;22191;-67
2022/11/29 04:56:05;;;;;;;8.40;5.80;;;;;;;-0.30;100.00;100854.27;105479;1317;23469;-67
2022/11/29 04:58:50;;;;;;;54.30;24.30;;;;;;;-0.28;100.00;100855.80;106291;1303;22245;-68
2022/11/29 05:01:30;;;;;;;20.40;10.10;;;;;;;-0.28;100.00;100850.81;106134;1309;22177;-67
2022/11/29 05:04:26;;;;;;;9.80;5.70;;;;;;;-0.29;100.00;100853.02;106017;1309;139162;-67
2022/11/29 05:07:07;;;;;;;6.70;4.60;;;;;;;-0.30;100.00;100845.73;106089;1303;22243;-63
2022/11/29 05:09:50;;;;;;;12.00;4.40;;;;;;;-0.32;100.00;100844.95;106037;1300;138436;-63
2022/11/29 08:08:50;;;;;;;19.20;11.70;;;;;;;-0.70;100.00;100944.96;101896;1317;558007;-92
2022/11/29 08:11:17;;;;;;;19.10;13.70;;;;;;;-0.57;100.00;100943.30;101394;1311;2639078;-90
2022/11/29 08:13:45;;;;;;;18.70;10.70;;;;;;;-0.53;100.00;100945.23;104220;1301;138425;-91
2022/11/29 08:16:16;;;;;;;24.10;14.00;;;;;;;-0.50;100.00;100944.34;104134;1302;23832;-91
2022/11/29 08:18:43;;;;;;;19.30;12.50;;;;;;;-0.48;100.00;100947.23;104196;1302;22486;-91
2022/11/29 08:21:10;;;;;;;;;;;;;;;-0.46;100.00;100946.66;103914;1306;137928;-90
2022/11/29 08:23:37;;;;;;;20.40;11.50;;;;;;;-0.44;100.00;100947.34;104072;1317;22508;-90
2022/11/29 08:26:04;;;;;;;15.30;9.40;;;;;;;-0.44;100.00;100941.33;104081;1308;139085;-88
2022/11/29 08:28:31;;;;;;;14.70;7.90;;;;;;;-0.54;100.00;100931.39;104352;1300;23335;-89
2022/11/29 08:31:01;;;;;;;;;;;;;;;-0.50;100.00;100932.79;105835;1316;137157;-90
2022/11/29 08:33:31;;;;;;;18.60;9.50;;;;;;;-0.53;100.00;100929.01;106432;1316;22565;-90
2022/11/29 08:36:45;;;;;;;23.50;11.50;;;;;;;-0.55;100.00;100929.21;105322;1311;22497;-90
2022/11/29 08:39:26;;;;;;;21.10;11.90;;;;;;;-0.55;100.00;100934.77;104922;1313;24022;-90
2022/11/29 08:41:53;;;;;;;;;;;;;;;-0.55;100.00;100929.71;104757;1312;22480;-90
2022/11/29 08:44:20;;;;;;;20.00;10.50;;;;;;;-0.55;100.00;100926.65;105181;1303;124125;-89
2022/11/29 08:49:32;;;;;;;25.40;12.20;;;;;;;-0.56;100.00;100929.64;104556;1294;138214;-90
2022/11/29 08:54:56;;;;;;;22.40;12.50;;;;;;;-0.58;100.00;100926.66;104946;1299;22577;-91
2022/11/29 08:57:32;;;;;;;20.80;10.90;;;;;;;-0.57;100.00;100921.94;104453;1299;22519;-91
2022/11/29 09:00:07;;;;;;;23.10;12.50;;;;;;;-0.58;100.00;100920.73;104864;1295;22512;-91
2022/11/29 09:02:35;;;;;;;25.20;11.20;;;;;;;-0.57;100.00;100918.89;104495;1289;138197;-91
2022/11/29 09:05:05;;;;;;;38.50;18.50;;;;;;;-0.57;100.00;100918.36;105000;1312;25126;-92
2022/11/29 09:07:38;;;;;;;25.20;11.30;;;;;;;-0.57;100.00;100918.28;104921;1304;138235;-90
2022/11/29 09:10:07;;;;;;;19.80;11.60;;;;;;;-0.56;100.00;100915.21;104653;1289;24299;-92
2022/11/29 09:12:34;;;;;;;29.40;14.90;;;;;;;-0.57;100.00;100913.73;104633;1300;24475;-91
2022/11/29 09:15:05;;;;;;;24.40;11.10;;;;;;;-0.57;100.00;100910.70;104258;1313;138065;-90
2022/11/29 09:17:33;;;;;;;19.90;9.90;;;;;;;-0.58;100.00;100911.50;104413;1289;22527;-91
2022/11/29 09:19:59;;;;;;;22.50;10.50;;;;;;;-0.60;100.00;100911.85;104262;1288;138371;-90
2022/11/29 09:22:29;;;;;;;;;;;;;;;-0.60;100.00;100909.38;104346;1298;22463;-89
2022/11/29 09:24:56;;;;;;;44.60;20.30;;;;;;;-0.60;100.00;100910.95;104784;1304;22613;-91
2022/11/29 09:27:23;;;;;;;;;;;;;;;-0.59;100.00;100907.48;104693;1314;137102;-89
2022/11/29 09:29:50;;;;;;;82.70;40.00;;;;;;;-0.58;100.00;100907.39;104989;1312;22686;-90
2022/11/29 09:32:18;;;;;;;35.80;19.40;;;;;;;-0.59;100.00;100905.31;105067;1296;138460;-89
2022/11/29 09:34:46;;;;;;;;;;;;;;;-0.74;100.00;100884.58;105161;1313;22600;-89
2022/11/29 09:37:13;;;;;;;20.50;12.10;;;;;;;-0.74;100.00;100883.64;105066;1313;124818;-90
2022/11/29 09:39:43;;;;;;;33.80;18.60;;;;;;;-0.60;100.00;100900.21;104736;1312;22551;-90
2022/11/29 09:42:38;;;;;;;43.00;20.60;;;;;;;-0.61;100.00;100900.14;104362;1313;22875;-89
2022/11/29 09:45:08;;;;;;;20.80;10.60;;;;;;;-0.61;100.00;100889.69;104407;1310;136970;-89
2022/11/29 09:47:56;;;;;;;25.50;14.30;;;;;;;-0.62;100.00;100877.60;104649;1312;22468;-89
2022/11/29 09:50:26;;;;;;;21.10;13.40;;;;;;;-0.61;100.00;100875.60;104599;1298;138589;-91
2022/11/29 09:53:22;;;;;;;20.90;12.20;;;;;;;-0.60;100.00;100879.54;104734;1296;24254;-90
2022/11/29 09:55:59;;;;;;;34.40;15.70;;;;;;;-0.58;100.00;100875.43;104314;1297;138126;-90
2022/11/29 09:58:32;;;;;;;47.00;24.80;;;;;;;-0.56;100.00;100879.14;104650;1312;25424;-89
2022/11/29 10:01:01;;;;;;;30.80;16.60;;;;;;;-0.55;100.00;100881.14;104274;1292;22483;-88
2022/11/29 10:03:32;;;;;;;38.10;18.90;;;;;;;-0.54;100.00;100882.17;104158;1313;137784;-91
2022/11/29 10:06:39;;;;;;;22.40;14.00;;;;;;;-0.54;100.00;100884.83;104383;1294;22454;-91
2022/11/29 10:09:25;;;;;;;22.40;12.30;;;;;;;-0.51;100.00;100886.80;103835;1316;138144;-91
2022/11/29 10:12:09;;;;;;;20.50;12.40;;;;;;;-0.53;100.00;100887.39;104097;1304;26210;-91
2022/11/29 10:14:47;;;;;;;27.80;12.70;;;;;;;-0.48;100.00;100889.55;103975;1319;138647;-91
2022/11/29 10:17:35;;;;;;;28.60;15.60;;;;;;;-0.45;100.00;100889.81;104827;1298;22522;-91
2022/11/29 10:20:24;;;;;;;23.10;14.20;;;;;;;-0.44;100.00;100890.27;104230;1316;138081;-92
2022/11/29 10:22:54;;;;;;;26.90;16.50;;;;;;;-0.44;100.00;100885.73;103768;1310;25018;-92
2022/11/29 10:25:25;;;;;;;32.20;18.10;;;;;;;-0.44;100.00;100883.43;103575;1308;138106;-92
2022/11/29 10:27:53;;;;;;;35.20;17.90;;;;;;;-0.43;100.00;100875.27;104034;1316;25237;-89
2022/11/29 10:30:20;;;;;;;36.90;19.00;;;;;;;-0.42;100.00;100877.14;103770;1307;24263;-90
2022/11/29 10:32:54;;;;;;;35.50;19.30;;;;;;;-0.41;100.00;100879.98;104212;1316;138823;-90
2022/11/29 10:35:21;;;;;;;42.90;25.50;;;;;;;-0.42;100.00;100885.35;104195;1319;22494;-92
2022/11/29 10:37:49;;;;;;;;;;;;;;;-0.40;100.00;100886.98;104005;1319;137196;-89
2022/11/29 10:40:38;;;;;;;33.90;19.30;;;;;;;-0.40;100.00;100889.25;104320;1304;22639;-92
2022/11/29 10:43:06;;;;;;;87.80;35.00;;;;;;;-0.40;100.00;100879.66;104332;1310;22777;-90
2022/11/29 10:45:46;;;;;;;46.20;22.60;;;;;;;-0.41;100.00;100881.54;104163;1306;23107;-88
2022/11/29 10:48:19;;;;;;;124.10;71.50;;;;;;;-0.52;100.00;100869.48;104027;1310;23402;-91
2022/11/29 10:50:50;;;;;;;101.10;45.80;;;;;;;-0.41;100.00;100885.41;104370;1303;138331;-91
2022/11/29 10:53:27;;;;;;;34.10;22.40;;;;;;;-0.41;100.00;100884.41;104394;1315;25387;-90
2022/11/29 10:55:57;;;;;;;23.20;13.80;;;;;;;-0.41;100.00;100888.33;104436;1304;138317;-90
2022/11/29 10:58:26;;;;;;;28.30;16.60;;;;;;;-0.42;100.00;100883.42;104447;1313;22498;-91
2022/11/29 11:06:17;;;;;;;26.30;17.70;;;;;;;-0.47;100.00;100887.17;103797;1330;26627;-92
2022/11/29 11:09:14;;;;;;;47.30;23.80;;;;;;;-0.48;100.00;100890.28;102982;1312;138457;-92
2022/11/29 11:11:44;;;;;;;37.60;18.40;;;;;;;-0.47;100.00;100890.25;103141;1316;23014;-90
2022/11/29 11:14:24;;;;;;;82.40;30.60;;;;;;;-0.45;100.00;100886.08;103280;1312;138378;-91
2022/11/29 11:16:52;;;;;;;76.40;32.40;;;;;;;-0.42;100.00;100888.81;103345;1309;22564;-90
2022/11/29 11:19:31;;;;;;;45.10;17.50;;;;;;;-0.41;100.00;100887.60;103176;1309;138517;-89
2022/11/29 11:22:02;;;;;;;102.20;40.50;;;;;;;-0.40;100.00;100884.63;104221;1319;22488;-91
2022/11/29 11:24:34;;;;;;;32.00;18.90;;;;;;;-0.40;100.00;100881.64;105593;1317;22121;-92
2022/11/29 11:27:05;;;;;;;30.10;20.10;;;;;;;-0.38;100.00;100884.45;104833;1318;138525;-88
2022/11/29 11:29:52;;;;;;;27.50;15.70;;;;;;;-0.52;100.00;100858.02;104379;1321;22585;-90
2022/11/29 11:32:43;;;;;;;;;;;;;;;-0.66;100.00;100841.26;103053;1316;138259;-89
2022/11/29 11:35:22;;;;;;;101.70;32.80;;;;;;;-0.42;100.00;100885.77;103138;1300;22799;-89
2022/11/29 11:37:55;;;;;;;38.60;17.80;;;;;;;-0.45;100.00;100884.09;103509;1302;139203;-90
2022/11/29 11:40:27;;;;;;;86.70;34.20;;;;;;;-0.47;100.00;100887.89;103073;1313;25573;-89
2022/11/29 11:42:59;;;;;;;33.00;17.60;;;;;;;-0.49;100.00;100886.99;103561;1313;25527;-89
2022/11/29 11:45:29;;;;;;;97.10;32.30;;;;;;;-0.65;100.00;100860.47;103991;1319;138250;-90
2022/11/29 11:48:00;;;;;;;39.00;20.90;;;;;;;-0.57;100.00;100874.43;104047;1313;22580;-89
2022/11/29 11:50:41;;;;;;;32.00;22.10;;;;;;;-0.55;100.00;100882.64;103460;1317;138852;-90
2022/11/29 11:53:35;;;;;;;34.30;18.90;;;;;;;-0.57;100.00;100875.55;104467;1317;22542;-90
2022/11/29 11:56:06;;;;;;;29.80;17.60;;;;;;;-0.59;100.00;100875.56;103883;1317;140564;-90
2022/11/29 11:58:35;;;;;;;28.80;15.70;;;;;;;-0.60;100.00;100870.66;104125;1302;24289;-91
2022/11/29 12:01:12;;;;;;;59.50;27.00;;;;;;;-0.61;100.00;100867.21;104480;1305;22608;-89
2022/11/29 12:04:13;;;;;;;41.70;22.50;;;;;;;-0.61;100.00;100869.35;104495;1298;138593;-90
2022/11/29 12:06:59;;;;;;;34.10;17.60;;;;;;;-0.60;100.00;100872.30;104729;1296;22527;-89
2022/11/29 12:09:39;;;;;;;25.20;14.00;;;;;;;-0.60;100.00;100870.86;104428;1294;138498;-91
2022/11/29 12:12:15;;;;;;;25.60;15.60;;;;;;;-0.64;100.00;100864.60;104668;1288;22536;-90
2022/11/29 12:14:54;;;;;;;27.10;13.80;;;;;;;-0.66;100.00;100865.55;104456;1312;137683;-90
2022/11/29 12:17:34;;;;;;;112.40;31.50;;;;;;;-0.68;100.00;100860.94;104625;1312;23293;-89
2022/11/29 12:20:23;;;;;;;92.80;29.10;;;;;;;-0.70;100.00;100858.02;104201;1312;138646;-90
2022/11/29 12:23:11;;;;;;;50.80;19.50;;;;;;;-0.70;100.00;100856.46;104238;1299;25765;-92
2022/11/29 12:25:44;;;;;;;26.30;14.00;;;;;;;-0.69;100.00;100864.04;104316;1305;138362;-91
2022/11/29 12:28:12;;;;;;;33.40;17.90;;;;;;;-0.68;100.00;100862.51;104390;1293;22512;-89
2022/11/29 12:31:02;;;;;;;27.60;13.70;;;;;;;-0.68;100.00;100859.50;104484;1306;24292;-91
2022/11/29 12:33:35;;;;;;;34.20;16.70;;;;;;;-0.68;100.00;100860.59;104224;1293;139253;-92
2022/11/29 12:36:12;;;;;;;62.40;27.00;;;;;;;-0.70;100.00;100868.94;104535;1313;25029;-90
2022/11/29 12:38:47;;;;;;;35.40;15.70;;;;;;;-0.71;100.00;100870.61;104627;1295;138469;-91
2022/11/29 12:41:21;;;;;;;28.90;15.20;;;;;;;-0.72;100.00;100866.98;104591;1300;22549;-92
2022/11/29 12:44:09;;;;;;;116.30;43.90;;;;;;;-0.74;100.00;100859.34;104585;1298;138845;-92
2022/11/29 12:46:37;;;;;;;29.60;17.50;;;;;;;-0.69;100.00;100868.18;104791;1291;26526;-90
2022/11/29 12:49:39;;;;;;;29.20;17.50;;;;;;;-0.69;100.00;100865.88;104859;1298;22504;-88
2022/11/29 12:52:21;;;;;;;28.50;17.90;;;;;;;-0.69;100.00;100868.45;104733;1312;22514;-89
2022/11/29 12:55:09;;;;;;;29.00;17.50;;;;;;;-0.67;100.00;100863.48;104672;1312;22625;-89
2022/11/29 12:57:58;;;;;;;32.00;17.10;;;;;;;-0.66;100.00;100861.63;104552;1298;138419;-89
2022/11/29 13:00:25;;;;;;;27.40;15.40;;;;;;;-0.65;100.00;100867.23;104596;1312;23000;-89
2022/11/29 13:03:26;;;;;;;19.00;11.50;;;;;;;-0.64;100.00;100867.28;104597;1307;138462;-89
2022/11/29 13:05:57;;;;;;;21.70;11.10;;;;;;;-0.63;100.00;100870.63;104478;1303;23398;-91
2022/11/29 13:08:36;;;;;;;17.50;10.50;;;;;;;-0.62;100.00;100866.95;104244;1314;139369;-89
2022/11/29 13:11:29;;;;;;;21.80;12.20;;;;;;;-0.61;100.00;100873.80;104500;1314;25424;-88
2022/11/29 13:14:31;;;;;;;26.10;13.10;;;;;;;-0.63;100.00;100882.00;104103;1315;138604;-90
2022/11/29 16:51:09;;;;;;;25.60;17.20;;;;;;;-1.29;100.00;100890.61;100054;1318;558075;-59
2022/11/29 16:53:37;;;;;;;31.00;18.30;;;;;;;-1.11;100.00;100897.09;101011;1301;81527;-58
2022/11/29 16:56:04;;;;;;;30.60;18.50;;;;;;;-1.09;100.00;100902.21;101114;1308;139017;-56
2022/11/29 16:58:30;;;;;;;24.70;16.70;;;;;;;-1.07;100.00;100904.85;101174;1297;25112;-56
2022/11/29 17:00:57;;;;;;;;;;;;;;;-1.05;100.00;100903.86;101067;1294;22556;-56
2022/11/29 17:03:24;;;;;;;22.50;16.30;;;;;;;-1.04;100.00;100901.02;101000;1298;124849;-56
2022/11/29 17:05:51;;;;;;;20.60;13.10;;;;;;;-1.02;100.00;100900.70;101209;1301;24553;-56
2022/11/29 17:08:17;;;;;;;23.60;13.40;;;;;;;-1.02;100.00;100899.81;101094;1301;137895;-58
2022/11/29 17:10:44;;;;;;;;;;;;;;;-1.06;100.00;100889.36;101209;1308;23013;-56
2022/11/29 17:13:11;;;;;;;26.70;13.90;;;;;;;-1.02;100.00;100902.33;101165;1300;22507;-55
2022/11/29 17:15:38;;;;;;;26.30;16.40;;;;;;;-1.02;100.00;100897.68;101117;1307;139545;-59
2022/11/29 17:18:04;;;;;;;;;;;;;;;-1.01;100.00;100902.33;101272;1308;22593;-59
2022/11/29 17:20:31;;;;;;;31.40;18.80;;;;;;;-0.99;100.00;100902.58;101134;1294;124324;-59
2022/11/29 17:22:58;;;;;;;21.20;13.80;;;;;;;-0.99;100.00;100901.13;101154;1301;22491;-59
2022/11/29 17:25:24;;;;;;;19.70;12.20;;;;;;;-0.99;100.00;100906.59;101597;1295;138239;-58
2022/11/29 17:27:51;;;;;;;18.30;11.40;;;;;;;-0.99;100.00;100903.24;101640;1304;24029;-58
2022/11/29 17:30:18;;;;;;;16.30;10.70;;;;;;;-0.99;100.00;100902.17;101595;1297;22826;-58
2022/11/29 17:32:45;;;;;;;;;;;;;;;-0.99;100.00;100902.64;101649;1304;138913;-58
2022/11/29 17:35:12;;;;;;;21.20;12.00;;;;;;;-0.97;100.00;100905.01;101587;1301;22521;-58
2022/11/29 17:37:38;;;;;;;;;;;;;;;-0.97;100.00;100908.35;101585;1304;139416;-57
2022/11/29 17:40:06;;;;;;;20.20;13.00;;;;;;;-0.96;100.00;100913.48;101602;1294;24286;-57
2022/11/29 17:42:33;;;;;;;23.20;13.50;;;;;;;-0.96;100.00;100909.40;106042;1307;22101;-59
2022/11/29 17:45:00;;;;;;;31.60;17.50;;;;;;;-0.97;100.00;100911.90;105964;1312;138364;-60
2022/11/29 17:47:27;;;;;;;24.50;15.20;;;;;;;-0.95;100.00;100916.27;106388;1309;22133;-60
2022/11/29 17:49:53;;;;;;;21.80;14.20;;;;;;;-0.93;100.00;100913.73;106240;1291;138756;-59
2022/11/29 17:52:20;;;;;;;;;;;;;;;-0.91;100.00;100912.23;106392;1309;22356;-59
2022/11/29 17:54:47;;;;;;;19.70;12.70;;;;;;;-0.90;100.00;100915.88;106349;1301;22583;-60
2022/11/29 17:57:14;;;;;;;;;;;;;;;-0.89;100.00;100914.58;106257;1309;138563;-59
2022/11/29 17:59:40;;;;;;;26.40;15.00;;;;;;;-0.88;100.00;100913.73;106364;1294;22194;-61
2022/11/29 18:02:08;;;;;;;;;;;;;;;-0.86;100.00;100914.23;106201;1309;138215;-59
2022/11/29 18:04:36;;;;;;;11.80;7.70;;;;;;;-0.84;100.00;100913.91;106383;1308;22187;-61
2022/11/29 18:07:04;;;;;;;12.10;8.00;;;;;;;-0.84;100.00;100906.55;106381;1309;22154;-59
2022/11/29 18:09:30;;;;;;;13.60;7.20;;;;;;;-0.84;100.00;100910.79;106272;1309;139430;-59
2022/11/29 18:11:57;;;;;;;18.90;11.80;;;;;;;-0.82;100.00;100915.30;106435;1309;22128;-60
2022/11/29 18:14:27;;;;;;;16.80;11.30;;;;;;;-0.81;100.00;100917.48;106272;1308;138402;-59
2022/11/29 18:16:54;;;;;;;18.50;10.70;;;;;;;-0.80;100.00;100915.05;106346;1302;22225;-58
2022/11/29 18:19:21;;;;;;;27.20;15.40;;;;;;;-0.79;100.00;100909.95;106246;1309;138599;-59
2022/11/29 18:21:48;;;;;;;;;;;;;;;-0.78;100.00;100911.13;106428;1309;22358;-60
2022/11/29 18:24:15;;;;;;;33.70;17.80;;;;;;;-0.78;100.00;100912.02;106341;1293;22174;-59
2022/11/29 18:26:42;;;;;;;30.90;21.80;;;;;;;-0.77;100.00;100909.57;106268;1309;139979;-58